createdAt,value
2018-11-21T00:00:20.009Z,23.97
2018-11-21T00:03:24.582Z,25.03
2018-11-21T00:06:29.180Z,23.67
2018-11-21T00:09:33.807Z,23.53
2018-11-21T00:12:39.441Z,24.57
2018-11-21T00:15:44.036Z,25.30
2018-11-21T00:18:48.612Z,24.73
2018-11-21T00:21:53.193Z,25.30
2018-11-21T00:24:57.823Z,23.40
2018-11-21T00:28:03.017Z,23.10
2018-11-21T00:31:08.325Z,22.00
2018-11-21T00:34:12.909Z,22.40
2018-11-21T00:37:18.386Z,22.50
2018-11-21T00:40:22.976Z,23.80
2018-11-21T00:43:27.546Z,24.27
2018-11-21T00:46:32.437Z,24.50
2018-11-21T00:49:37.060Z,24.47
2018-11-21T00:52:41.637Z,28.63
2018-11-21T00:55:46.366Z,23.67
2018-11-21T00:58:51.014Z,25.80
2018-11-21T01:01:55.624Z,23.87
2018-11-21T01:05:00.483Z,23.80
2018-11-21T01:08:05.390Z,25.27
2018-11-21T01:11:10.113Z,23.23
2018-11-21T01:14:14.680Z,23.27
2018-11-21T01:17:20.085Z,24.37
2018-11-21T01:20:24.972Z,22.73
2018-11-21T01:23:29.549Z,23.30
2018-11-21T01:26:34.498Z,24.07
2018-11-21T01:29:39.075Z,23.97
2018-11-21T01:32:43.986Z,25.90
2018-11-21T01:35:48.561Z,25.47
2018-11-21T01:38:54.474Z,23.40
2018-11-21T01:41:59.238Z,24.57
2018-11-21T01:45:04.105Z,25.40
2018-11-21T01:48:08.689Z,24.63
2018-11-21T01:51:13.288Z,24.23
2018-11-21T01:54:17.905Z,24.73
2018-11-21T01:57:22.614Z,24.80
2018-11-21T02:00:27.199Z,24.73
2018-11-21T02:03:31.842Z,24.73
2018-11-21T02:06:36.436Z,23.27
2018-11-21T02:09:41.005Z,23.07
2018-11-21T02:12:45.593Z,24.13
2018-11-21T02:15:50.583Z,23.47
2018-11-21T02:18:55.161Z,23.50
2018-11-21T02:21:59.761Z,22.40
2018-11-21T02:25:05.531Z,24.87
2018-11-21T02:28:10.531Z,24.10
2018-11-21T02:31:15.148Z,23.20
2018-11-21T02:34:20.105Z,23.60
2018-11-21T02:37:24.746Z,23.37
2018-11-21T02:40:29.663Z,21.63
2018-11-21T02:43:34.248Z,23.73
2018-11-21T02:46:38.842Z,22.07
2018-11-21T02:49:43.719Z,23.50
2018-11-21T02:52:48.603Z,22.83
2018-11-21T02:55:53.197Z,23.67
2018-11-21T02:58:57.797Z,25.87
2018-11-21T03:02:03.367Z,25.33
2018-11-21T03:05:07.922Z,23.17
2018-11-21T03:08:12.551Z,24.60
2018-11-21T03:11:17.127Z,23.20
2018-11-21T03:14:21.728Z,23.53
2018-11-21T03:17:26.348Z,21.93
2018-11-21T03:20:31.550Z,21.20
2018-11-21T03:23:36.477Z,23.33
2018-11-21T03:26:41.171Z,22.77
2018-11-21T03:29:45.758Z,22.93
2018-11-21T03:32:51.444Z,23.03
2018-11-21T03:35:56.186Z,23.20
2018-11-21T03:39:00.806Z,23.90
2018-11-21T03:42:05.386Z,24.30
2018-11-21T03:45:10.866Z,24.27
2018-11-21T03:48:15.846Z,23.90
2018-11-21T03:51:20.428Z,27.83
2018-11-21T03:54:25.047Z,26.47
2018-11-21T03:57:29.621Z,27.27
2018-11-21T04:00:34.200Z,24.27
2018-11-21T04:03:38.797Z,23.07
2018-11-21T04:06:43.412Z,23.23
2018-11-21T04:09:48.013Z,23.97
2018-11-21T04:12:52.633Z,23.43
2018-11-21T04:15:57.591Z,24.83
2018-11-21T04:19:02.210Z,21.50
2018-11-21T04:22:06.742Z,23.63
2018-11-21T04:25:11.870Z,23.37
2018-11-21T04:28:16.854Z,24.27
2018-11-21T04:31:21.452Z,21.00
2018-11-21T04:34:26.027Z,23.07
2018-11-21T04:37:31.277Z,22.63
2018-11-21T04:40:35.871Z,22.33
2018-11-21T04:43:40.814Z,21.80
2018-11-21T04:46:45.390Z,22.37
2018-11-21T04:49:49.978Z,23.37
2018-11-21T04:52:54.566Z,24.00
2018-11-21T04:55:59.324Z,24.13
2018-11-21T04:59:04.565Z,21.97
2018-11-21T05:02:09.133Z,23.13
2018-11-21T05:05:14.173Z,22.70
2018-11-21T05:08:18.742Z,21.33
2018-11-21T05:15:16.068Z,27.90
2018-11-21T05:18:21.344Z,25.30
2018-11-21T05:21:26.264Z,25.27
2018-11-21T05:24:31.037Z,25.43
2018-11-21T05:27:35.620Z,26.60
2018-11-21T05:30:40.211Z,26.30
2018-11-21T05:33:44.790Z,25.97
2018-11-21T05:36:49.708Z,35.40
2018-11-21T05:39:54.630Z,40.83
2018-11-21T05:42:59.275Z,36.23
2018-11-21T05:46:04.399Z,30.33
2018-11-21T05:49:09.003Z,33.90
2018-11-21T05:52:13.617Z,34.80
2018-11-21T05:55:18.576Z,44.37
2018-11-21T05:58:23.536Z,47.27
2018-11-21T06:01:28.553Z,48.73
2018-11-21T06:04:33.151Z,41.67
2018-11-21T06:07:37.814Z,37.57
2018-11-21T06:10:42.437Z,35.97
2018-11-21T06:13:47.067Z,33.33
2018-11-21T06:16:51.992Z,34.23
2018-11-21T06:19:56.646Z,40.93
2018-11-21T06:23:01.226Z,37.00
2018-11-21T06:26:06.176Z,34.90
2018-11-21T06:29:10.780Z,31.30
2018-11-21T06:32:15.379Z,31.23
2018-11-21T06:35:19.993Z,29.07
2018-11-21T06:38:24.601Z,29.10
2018-11-21T06:41:29.218Z,38.93
2018-11-21T06:44:33.874Z,39.57
2018-11-21T06:47:54.186Z,47.33
2018-11-21T06:50:58.795Z,38.23
2018-11-21T06:54:04.383Z,35.40
2018-11-21T06:57:08.972Z,34.33
2018-11-21T07:00:13.606Z,35.43
2018-11-21T07:03:18.601Z,39.73
2018-11-21T07:06:23.887Z,43.20
2018-11-21T07:09:47.021Z,46.17
2018-11-21T07:12:51.955Z,36.00
2018-11-21T07:15:56.589Z,37.43
2018-11-21T07:19:01.170Z,34.63
2018-11-21T07:22:05.993Z,31.77
2018-11-21T07:25:18.710Z,38.80
2018-11-21T07:28:23.324Z,45.27
2018-11-21T07:31:28.312Z,36.87
2018-11-21T07:34:32.895Z,29.93
2018-11-21T07:37:38.357Z,38.93
2018-11-21T07:40:43.002Z,34.80
2018-11-21T07:43:47.604Z,34.87
2018-11-21T07:46:52.204Z,47.03
2018-11-21T07:49:56.778Z,35.80
2018-11-21T07:53:01.639Z,39.27
2018-11-21T07:57:01.713Z,29.03
2018-11-21T08:00:55.398Z,32.90
2018-11-21T08:04:25.602Z,27.77
2018-11-21T08:07:43.210Z,26.43
2018-11-21T08:11:05.890Z,26.40
2018-11-21T08:14:48.316Z,28.53
2018-11-21T08:22:31.425Z,24.57
2018-11-21T08:25:55.687Z,22.43
2018-11-21T08:29:00.574Z,23.53
2018-11-21T08:32:05.191Z,23.57
2018-11-21T08:35:09.771Z,24.77
2018-11-21T08:38:14.834Z,25.00
2018-11-21T08:41:20.667Z,26.30
2018-11-21T08:44:25.275Z,25.13
2018-11-21T08:47:30.183Z,26.13
2018-11-21T08:50:34.965Z,24.50
2018-11-21T08:53:39.651Z,31.27
2018-11-21T08:56:44.342Z,26.60
2018-11-21T08:59:48.920Z,23.20
2018-11-21T09:02:53.689Z,23.13
2018-11-21T09:05:58.282Z,24.20
2018-11-21T09:09:04.746Z,21.93
2018-11-21T09:12:09.368Z,26.27
2018-11-21T09:15:14.951Z,33.17
2018-11-21T09:18:19.667Z,22.10
2018-11-21T09:21:24.323Z,21.33
2018-11-21T09:24:28.932Z,24.63
2018-11-21T09:27:33.993Z,21.33
2018-11-21T09:30:38.997Z,26.13
2018-11-21T09:33:43.606Z,26.23
2018-11-21T09:36:48.236Z,22.93
2018-11-21T09:39:52.831Z,24.13
2018-11-21T09:42:57.471Z,22.97
2018-11-21T09:46:02.087Z,22.10
2018-11-21T09:49:07.811Z,21.57
2018-11-21T09:52:11.511Z,20.80
2018-11-21T09:55:16.332Z,21.13
2018-11-21T09:58:20.958Z,21.60
2018-11-21T10:02:02.628Z,20.10
2018-11-21T10:05:07.695Z,20.50
2018-11-21T10:08:48.451Z,22.03
2018-11-21T10:11:53.854Z,20.60
2018-11-21T10:14:58.541Z,21.83
2018-11-21T10:18:03.763Z,24.90
2018-11-21T10:21:14.063Z,20.17
2018-11-21T10:24:19.092Z,31.40
2018-11-21T10:27:23.702Z,25.90
2018-11-21T10:30:28.339Z,21.63
2018-11-21T10:33:33.191Z,26.37
2018-11-21T10:36:37.802Z,21.93
2018-11-21T10:39:42.437Z,24.03
2018-11-21T10:42:47.404Z,19.77
2018-11-21T10:45:52.426Z,20.03
2018-11-21T10:48:57.428Z,20.40
2018-11-21T10:52:02.074Z,18.20
2018-11-21T10:55:06.747Z,19.57
2018-11-21T10:58:11.409Z,20.97
2018-11-21T11:01:34.055Z,20.10
2018-11-21T11:05:01.100Z,19.23
2018-11-21T11:08:23.842Z,20.20
2018-11-21T11:11:46.828Z,18.93
2018-11-21T11:15:34.728Z,20.57
2018-11-21T11:22:27.232Z,20.60
2018-11-21T11:25:58.526Z,18.90
2018-11-21T11:29:21.477Z,22.63
2018-11-21T11:32:38.364Z,22.43
2018-11-21T11:36:01.525Z,25.73
2018-11-21T11:39:22.175Z,22.47
2018-11-21T11:42:45.943Z,23.90
2018-11-21T11:46:12.953Z,47.10
2018-11-21T11:49:36.348Z,31.00
2018-11-21T11:52:59.708Z,23.47
2018-11-21T11:56:23.068Z,25.00
2018-11-21T11:59:52.670Z,20.33
2018-11-21T12:03:17.002Z,17.60
2018-11-21T12:06:40.187Z,22.20
